MOL Experience — 3ELI7 — position and weather

sailwx.info

Track history (hours):
 
Tides and Currents Weather Stations Pressure Air Temp Water Temp Dewpoint Dewpoint Depression Visibility Wind Speed Wind Dir Waves Ship Positions

MOL Experience

Last reported at 2018-Apr-15 15:40 UTC. Time now 2018-Apr-26 11:40 UTC.
Position N 31°58' W 080°18'.
Warning: this ship's position is 10 days out of date.

Length 293 m; draft 12.1 m.

Type: Cargo ship. MMSI: 372955000.

Date/timePositionNaut miles runAvg speedWind from/ knotsBaromVisibWave heightAir tempDewpointWater temp
2018-Apr-15 15:40N 31°58' W 080°18'310.1
2018-Apr-15 15:21N 31°57' W 080°21'3 8.6
2018-Apr-15 14:56N 31°57' W 080°25'4 8.7
2018-Apr-15 14:25N 31°57' W 080°31'5 9.2
2018-Apr-15 13:54N 31°56' W 080°36'5 8.6
2018-Apr-15 13:18N 31°58' W 080°42'3 9.3
2018-Apr-15 13:00N 31°59' W 080°45'612.1
2018-Apr-15 12:30N 32°02' W 080°51'5 9.0
2018-Apr-15 12:00N 32°03' W 080°56'4 8.7
2018-Apr-15 11:30N 32°06' W 080°60'4 7.1
2018-Apr-15 11:00N 32°05' W 081°04'3 5.5
2018-Apr-15 10:30N 32°06' W 081°07'1 2.7
2018-Apr-15 09:58N 32°07' W 081°08'0 0.0
2018-Apr-15 09:28N 32°07' W 081°08'0 0.0
2018-Apr-15 08:58N 32°07' W 081°08'0 0.0
2018-Apr-15 08:28N 32°07' W 081°08'0 0.0
2018-Apr-15 07:58N 32°07' W 081°08'0 0.0
2018-Apr-15 07:22N 32°07' W 081°08'0 0.0
2018-Apr-15 06:58N 32°07' W 081°08'0 0.0
2018-Apr-15 06:28N 32°07' W 081°08'0 0.0
2018-Apr-15 05:52N 32°07' W 081°08'0 0.0
2018-Apr-15 05:28N 32°07' W 081°08'0 0.0
2018-Apr-15 04:58N 32°07' W 081°08'0 0.0
2018-Apr-15 04:28N 32°07' W 081°08'0 0.0
2018-Apr-15 03:52N 32°07' W 081°08'0 0.0
2018-Apr-15 03:28N 32°07' W 081°08'0 0.0
2018-Apr-15 02:58N 32°07' W 081°08'0 0.0
2018-Apr-15 02:28N 32°07' W 081°08'0 0.0
2018-Apr-15 01:58N 32°07' W 081°08'0 0.0
2018-Apr-15 01:22N 32°07' W 081°08'0 0.0
2018-Apr-15 00:52N 32°07' W 081°08'0 0.0
2018-Apr-15 00:28N 32°07' W 081°08'0 0.0
2018-Apr-14 23:58N 32°07' W 081°08'0 0.0
2018-Apr-14 23:28N 32°07' W 081°08'0 0.0
2018-Apr-14 22:58N 32°07' W 081°08'0 0.0
2018-Apr-14 22:28N 32°07' W 081°08'0 0.0
2018-Apr-14 21:58N 32°07' W 081°08'0 0.0
2018-Apr-14 21:22N 32°07' W 081°08'0 0.0
2018-Apr-14 20:52N 32°07' W 081°08'0 0.0
2018-Apr-14 20:28N 32°07' W 081°08'0 0.0
2018-Apr-14 20:00N 32°07' W 081°08'1 1.4
2018-Apr-14 19:30N 32°08' W 081°08'2 3.8
2018-Apr-14 19:01N 32°06' W 081°07'2 4.5
2018-Apr-14 18:30N 32°05' W 081°05'3 6.0
2018-Apr-14 18:00N 32°05' W 081°01'4 7.1
2018-Apr-14 17:30N 32°04' W 080°57'4 8.1
2018-Apr-14 17:00N 32°02' W 080°53'510.0
2018-Apr-14 16:30N 32°00' W 080°48'713.4
2018-Apr-14 16:00N 31°57' W 080°41'4 9.0
2018-Apr-14 15:31N 31°56' W 080°36'3 6.0
2018-Apr-14 15:01N 31°58' W 080°34'0 0.1
2018-Apr-14 14:28N 31°58' W 080°34'0 0.1
2018-Apr-14 13:52N 31°59' W 080°34'0 0.1
2018-Apr-14 13:28N 31°59' W 080°34'0 0.2
2018-Apr-14 12:58N 31°59' W 080°34'0 0.1
2018-Apr-14 12:28N 31°59' W 080°34'0 0.0
2018-Apr-14 11:58N 31°59' W 080°34'0 0.2
2018-Apr-14 11:31N 31°59' W 080°34'3 6.1
2018-Apr-14 11:01N 31°57' W 080°30'5 9.2
2018-Apr-14 10:30N 31°55' W 080°26'  
2018-Apr-10 15:10N 10°32' W 075°46'316.0
2018-Apr-10 14:59N 10°29' W 075°46'815.8
2018-Apr-10 14:30N 10°22' W 075°44'714.1
2018-Apr-10 14:00N 10°19' W 075°37'5 8.9
2018-Apr-10 13:30N 10°20' W 075°33'4 8.6
2018-Apr-10 13:00N 10°24' W 075°33'1 1.6
2018-Apr-10 12:28N 10°24' W 075°32'0 0.0
2018-Apr-10 11:58N 10°24' W 075°32'0 0.0
2018-Apr-10 11:28N 10°24' W 075°32'0 0.0
2018-Apr-10 10:58N 10°24' W 075°32'0 0.0
2018-Apr-10 10:28N 10°24' W 075°32'0 0.0
2018-Apr-10 09:58N 10°24' W 075°32'0 0.0
2018-Apr-10 09:28N 10°24' W 075°32'0 0.0
2018-Apr-10 08:58N 10°24' W 075°32'0 0.0
2018-Apr-10 08:28N 10°24' W 075°32'0 0.0
2018-Apr-10 07:58N 10°24' W 075°32'0 0.0
2018-Apr-10 07:28N 10°24' W 075°32'0 0.0
2018-Apr-10 06:58N 10°24' W 075°32'0 0.0
2018-Apr-10 06:28N 10°24' W 075°32'0 0.0
2018-Apr-10 05:58N 10°24' W 075°32'0 0.0
2018-Apr-10 05:28N 10°24' W 075°32'0 0.0
2018-Apr-10 04:58N 10°24' W 075°32'0 0.0
2018-Apr-10 04:28N 10°24' W 075°32'0 0.0
2018-Apr-10 03:46N 10°24' W 075°32'0 0.0
2018-Apr-10 03:28N 10°24' W 075°32'0 0.0
2018-Apr-10 02:58N 10°24' W 075°32'0 0.0
2018-Apr-10 02:28N 10°24' W 075°32'0 0.0
2018-Apr-10 01:58N 10°24' W 075°32'0 0.1
2018-Apr-10 01:30N 10°24' W 075°32'2 3.7
2018-Apr-10 01:00N 10°22' W 075°32'4 8.3
2018-Apr-10 00:30N 10°19' W 075°35'4 7.2
2018-Apr-09 23:59N 10°18' W 075°38'2 3.5
2018-Apr-09 23:30N 10°18' W 075°40'4 6.9
2018-Apr-09 22:58N 10°18' W 075°44'511.1
2018-Apr-09 22:30N 10°17' W 075°49'23611.7
2018-Apr-09 02:16N 09°38' W 079°45'412.4
2018-Apr-09 01:58N 09°35' W 079°47'612.4
2018-Apr-09 01:30N 09°31' W 079°51'612.0
2018-Apr-09 01:00N 09°26' W 079°55'510.5
2018-Apr-09 00:30N 09°21' W 079°55'4 7.2
2018-Apr-09 00:00N 09°18' W 079°55'1 2.1
2018-Apr-08 23:30N 09°17' W 079°55'0 0.4
2018-Apr-08 23:00N 09°16' W 079°55'0 0.4
2018-Apr-08 22:29N 09°16' W 079°55'0 0.5
2018-Apr-08 22:00N 09°16' W 079°55'0 0.9
2018-Apr-08 21:30N 09°16' W 079°55'0 0.3
2018-Apr-08 21:00N 09°16' W 079°55'0 0.2
2018-Apr-08 20:30N 09°16' W 079°55'0 0.8
2018-Apr-08 20:00N 09°15' W 079°55'1 1.1
2018-Apr-08 19:28N 09°15' W 079°55'1 1.8
2018-Apr-08 19:00N 09°14' W 079°55'3 5.1
2018-Apr-08 18:29N 09°12' W 079°54'  
Track history (hours):
 
Tides and Currents Weather Stations Pressure Air Temp Water Temp Dewpoint Dewpoint Depression Visibility Wind Speed Wind Dir Waves Ship Positions

MOL Experience

Last reported at 2018-Apr-15 15:40 UTC. Time now 2018-Apr-26 11:40 UTC.
Position N 31°58' W 080°18'.
Warning: this ship's position is 10 days out of date.

Length 293 m; draft 12.1 m.

Type: Cargo ship. MMSI: 372955000.

Date/timePositionNaut miles runAvg speedWind from/ knotsBaromVisibWave heightAir tempDewpointWater temp
2018-Apr-15 15:40N 31°58' W 080°18'310.1
2018-Apr-15 15:21N 31°57' W 080°21'3 8.6
2018-Apr-15 14:56N 31°57' W 080°25'4 8.7
2018-Apr-15 14:25N 31°57' W 080°31'5 9.2
2018-Apr-15 13:54N 31°56' W 080°36'5 8.6
2018-Apr-15 13:18N 31°58' W 080°42'3 9.3
2018-Apr-15 13:00N 31°59' W 080°45'612.1
2018-Apr-15 12:30N 32°02' W 080°51'5 9.0
2018-Apr-15 12:00N 32°03' W 080°56'4 8.7
2018-Apr-15 11:30N 32°06' W 080°60'4 7.1
2018-Apr-15 11:00N 32°05' W 081°04'3 5.5
2018-Apr-15 10:30N 32°06' W 081°07'1 2.7
2018-Apr-15 09:58N 32°07' W 081°08'0 0.0
2018-Apr-15 09:28N 32°07' W 081°08'0 0.0
2018-Apr-15 08:58N 32°07' W 081°08'0 0.0
2018-Apr-15 08:28N 32°07' W 081°08'0 0.0
2018-Apr-15 07:58N 32°07' W 081°08'0 0.0
2018-Apr-15 07:22N 32°07' W 081°08'0 0.0
2018-Apr-15 06:58N 32°07' W 081°08'0 0.0
2018-Apr-15 06:28N 32°07' W 081°08'0 0.0
2018-Apr-15 05:52N 32°07' W 081°08'0 0.0
2018-Apr-15 05:28N 32°07' W 081°08'0 0.0
2018-Apr-15 04:58N 32°07' W 081°08'0 0.0
2018-Apr-15 04:28N 32°07' W 081°08'0 0.0
2018-Apr-15 03:52N 32°07' W 081°08'0 0.0
2018-Apr-15 03:28N 32°07' W 081°08'0 0.0
2018-Apr-15 02:58N 32°07' W 081°08'0 0.0
2018-Apr-15 02:28N 32°07' W 081°08'0 0.0
2018-Apr-15 01:58N 32°07' W 081°08'0 0.0
2018-Apr-15 01:22N 32°07' W 081°08'0 0.0
2018-Apr-15 00:52N 32°07' W 081°08'0 0.0
2018-Apr-15 00:28N 32°07' W 081°08'0 0.0
2018-Apr-14 23:58N 32°07' W 081°08'0 0.0
2018-Apr-14 23:28N 32°07' W 081°08'0 0.0
2018-Apr-14 22:58N 32°07' W 081°08'0 0.0
2018-Apr-14 22:28N 32°07' W 081°08'0 0.0
2018-Apr-14 21:58N 32°07' W 081°08'0 0.0
2018-Apr-14 21:22N 32°07' W 081°08'0 0.0
2018-Apr-14 20:52N 32°07' W 081°08'0 0.0
2018-Apr-14 20:28N 32°07' W 081°08'0 0.0
2018-Apr-14 20:00N 32°07' W 081°08'1 1.4
2018-Apr-14 19:30N 32°08' W 081°08'2 3.8
2018-Apr-14 19:01N 32°06' W 081°07'2 4.5
2018-Apr-14 18:30N 32°05' W 081°05'3 6.0
2018-Apr-14 18:00N 32°05' W 081°01'4 7.1
2018-Apr-14 17:30N 32°04' W 080°57'4 8.1
2018-Apr-14 17:00N 32°02' W 080°53'510.0
2018-Apr-14 16:30N 32°00' W 080°48'713.4
2018-Apr-14 16:00N 31°57' W 080°41'4 9.0
2018-Apr-14 15:31N 31°56' W 080°36'3 6.0
2018-Apr-14 15:01N 31°58' W 080°34'0 0.1
2018-Apr-14 14:28N 31°58' W 080°34'0 0.1
2018-Apr-14 13:52N 31°59' W 080°34'0 0.1
2018-Apr-14 13:28N 31°59' W 080°34'0 0.2
2018-Apr-14 12:58N 31°59' W 080°34'0 0.1
2018-Apr-14 12:28N 31°59' W 080°34'0 0.0
2018-Apr-14 11:58N 31°59' W 080°34'0 0.2
2018-Apr-14 11:31N 31°59' W 080°34'3 6.1
2018-Apr-14 11:01N 31°57' W 080°30'5 9.2
2018-Apr-14 10:30N 31°55' W 080°26'  
2018-Apr-10 15:10N 10°32' W 075°46'316.0
2018-Apr-10 14:59N 10°29' W 075°46'815.8
2018-Apr-10 14:30N 10°22' W 075°44'714.1
2018-Apr-10 14:00N 10°19' W 075°37'5 8.9
2018-Apr-10 13:30N 10°20' W 075°33'4 8.6
2018-Apr-10 13:00N 10°24' W 075°33'1 1.6
2018-Apr-10 12:28N 10°24' W 075°32'0 0.0
2018-Apr-10 11:58N 10°24' W 075°32'0 0.0
2018-Apr-10 11:28N 10°24' W 075°32'0 0.0
2018-Apr-10 10:58N 10°24' W 075°32'0 0.0
2018-Apr-10 10:28N 10°24' W 075°32'0 0.0
2018-Apr-10 09:58N 10°24' W 075°32'0 0.0
2018-Apr-10 09:28N 10°24' W 075°32'0 0.0
2018-Apr-10 08:58N 10°24' W 075°32'0 0.0
2018-Apr-10 08:28N 10°24' W 075°32'0 0.0
2018-Apr-10 07:58N 10°24' W 075°32'0 0.0
2018-Apr-10 07:28N 10°24' W 075°32'0 0.0
2018-Apr-10 06:58N 10°24' W 075°32'0 0.0
2018-Apr-10 06:28N 10°24' W 075°32'0 0.0
2018-Apr-10 05:58N 10°24' W 075°32'0 0.0
2018-Apr-10 05:28N 10°24' W 075°32'0 0.0
2018-Apr-10 04:58N 10°24' W 075°32'0 0.0
2018-Apr-10 04:28N 10°24' W 075°32'0 0.0
2018-Apr-10 03:46N 10°24' W 075°32'0 0.0
2018-Apr-10 03:28N 10°24' W 075°32'0 0.0
2018-Apr-10 02:58N 10°24' W 075°32'0 0.0
2018-Apr-10 02:28N 10°24' W 075°32'0 0.0
2018-Apr-10 01:58N 10°24' W 075°32'0 0.1
2018-Apr-10 01:30N 10°24' W 075°32'2 3.7
2018-Apr-10 01:00N 10°22' W 075°32'4 8.3
2018-Apr-10 00:30N 10°19' W 075°35'4 7.2
2018-Apr-09 23:59N 10°18' W 075°38'2 3.5
2018-Apr-09 23:30N 10°18' W 075°40'4 6.9
2018-Apr-09 22:58N 10°18' W 075°44'511.1
2018-Apr-09 22:30N 10°17' W 075°49'23611.7
2018-Apr-09 02:16N 09°38' W 079°45'412.4
2018-Apr-09 01:58N 09°35' W 079°47'612.4
2018-Apr-09 01:30N 09°31' W 079°51'612.0
2018-Apr-09 01:00N 09°26' W 079°55'510.5
2018-Apr-09 00:30N 09°21' W 079°55'4 7.2
2018-Apr-09 00:00N 09°18' W 079°55'1 2.1
2018-Apr-08 23:30N 09°17' W 079°55'0 0.4
2018-Apr-08 23:00N 09°16' W 079°55'0 0.4
2018-Apr-08 22:29N 09°16' W 079°55'0 0.5
2018-Apr-08 22:00N 09°16' W 079°55'0 0.9
2018-Apr-08 21:30N 09°16' W 079°55'0 0.3
2018-Apr-08 21:00N 09°16' W 079°55'0 0.2
2018-Apr-08 20:30N 09°16' W 079°55'0 0.8
2018-Apr-08 20:00N 09°15' W 079°55'1 1.1
2018-Apr-08 19:28N 09°15' W 079°55'1 1.8
2018-Apr-08 19:00N 09°14' W 079°55'3 5.1
2018-Apr-08 18:29N 09°12' W 079°54'  

Dump ship's entire track history